Time;durP1;ratioP1;P1;durP2;ratioP2;P2;SDS_P1;SDS_P2;PMS_P1;PMS_P2;Temp;Humidity;BMP_temperature;BMP_pressure;BME280_temperature;BME280_humidity;BME280_pressure;Samples;Min_cycle;Max_cycle;Signal;HPM_P1;HPM_P2
2022/07/09 00:00:30;;;;;;;;;17.33;15.67;;;;;;;;5078809;28;45376;-74
2022/07/09 00:02:55;;;;;;;;;15.33;15.33;;;;;;;;5078688;28;45311;-74
2022/07/09 00:05:20;;;;;;;;;17.67;14.67;;;;;;;;5078687;28;45425;-74
2022/07/09 00:07:46;;;;;;;;;14.67;14.33;;;;;;;;5078267;28;45392;-74
2022/07/09 00:10:11;;;;;;;;;14.00;14.00;;;;;;;;5078887;27;45320;-74
2022/07/09 00:12:36;;;;;;;;;19.33;17.00;;;;;;;;5079374;28;45455;-74
2022/07/09 00:15:02;;;;;;;;;19.00;16.33;;;;;;;;5079765;28;45656;-75
2022/07/09 00:17:29;;;;;;;;;22.33;20.67;;;;;;;;5079983;28;45316;-76
2022/07/09 00:19:55;;;;;;;;;17.33;17.33;;;;;;;;5079980;28;45414;-80
2022/07/09 00:22:20;;;;;;;;;22.33;18.00;;;;;;;;5080136;28;45352;-79
2022/07/09 00:24:45;;;;;;;;;18.33;16.67;;;;;;;;5078132;28;46205;-79
2022/07/09 00:27:10;;;;;;;;;22.67;19.33;;;;;;;;5067753;28;47006;-76
2022/07/09 00:29:35;;;;;;;;;22.33;22.00;;;;;;;;5078499;28;45354;-80
2022/07/09 00:32:01;;;;;;;;;21.67;21.67;;;;;;;;5079422;28;45414;-76
2022/07/09 00:34:26;;;;;;;;;21.33;19.33;;;;;;;;5063969;28;46390;-78
2022/07/09 00:36:51;;;;;;;;;23.33;22.33;;;;;;;;5078957;28;45438;-77
2022/07/09 00:39:16;;;;;;;;;23.00;21.33;;;;;;;;5077916;28;45447;-77
2022/07/09 00:41:41;;;;;;;;;28.33;23.33;;;;;;;;5069780;28;45249;-77
2022/07/09 00:44:07;;;;;;;;;25.00;22.33;;;;;;;;5071874;28;45359;-77
2022/07/09 00:46:32;;;;;;;;;24.67;19.33;;;;;;;;5079382;27;45352;-79
2022/07/09 00:49:03;;;;;;;;;22.00;18.00;;;;;;;;5079728;28;45314;-81
2022/07/09 00:51:28;;;;;;;;;23.33;20.67;;;;;;;;5062873;27;45332;-78
2022/07/09 00:53:53;;;;;;;;;22.33;22.00;;;;;;;;5070412;28;45426;-80
2022/07/09 00:56:19;;;;;;;;;27.00;22.67;;;;;;;;5065033;28;45645;-80
2022/07/09 00:58:44;;;;;;;;;21.33;19.33;;;;;;;;5065214;28;45525;-80
2022/07/09 01:01:10;;;;;;;;;19.67;19.33;;;;;;;;5070465;28;45280;-74
2022/07/09 01:03:35;;;;;;;;;20.33;19.67;;;;;;;;5078868;28;46551;-73
2022/07/09 01:06:00;;;;;;;;;21.33;21.33;;;;;;;;5079024;28;45326;-73
2022/07/09 01:08:26;;;;;;;;;25.00;22.33;;;;;;;;5078802;28;45445;-73
2022/07/09 01:10:51;;;;;;;;;28.67;24.00;;;;;;;;5078870;28;45490;-73
2022/07/09 01:13:17;;;;;;;;;26.33;21.67;;;;;;;;5079076;28;47392;-77
2022/07/09 01:15:42;;;;;;;;;22.33;21.33;;;;;;;;5078559;28;45405;-74
2022/07/09 01:18:11;;;;;;;;;25.67;25.67;;;;;;;;5078916;28;45420;-74
2022/07/09 01:20:36;;;;;;;;;27.00;22.00;;;;;;;;5078958;28;45458;-75
2022/07/09 01:23:01;;;;;;;;;20.67;19.33;;;;;;;;5078475;28;46163;-75
2022/07/09 01:25:39;;;;;;;;;21.33;21.33;;;;;;;;5078445;28;45470;-77
2022/07/09 01:28:06;;;;;;;;;20.67;20.67;;;;;;;;5079091;28;45479;-77
2022/07/09 01:30:32;;;;;;;;;27.00;24.67;;;;;;;;5078632;28;45599;-75
2022/07/09 01:32:57;;;;;;;;;19.33;19.33;;;;;;;;5078397;28;45567;-75
2022/07/09 01:35:22;;;;;;;;;26.00;26.00;;;;;;;;5078420;28;45428;-76
2022/07/09 01:37:48;;;;;;;;;24.00;21.67;;;;;;;;5079524;28;45602;-75
2022/07/09 01:40:13;;;;;;;;;20.67;17.00;;;;;;;;5078558;27;45431;-75
2022/07/09 01:42:38;;;;;;;;;25.67;23.00;;;;;;;;5078483;28;45431;-75
2022/07/09 01:45:04;;;;;;;;;22.67;21.00;;;;;;;;5078068;28;45509;-75
2022/07/09 01:47:29;;;;;;;;;24.33;22.00;;;;;;;;5078814;28;45253;-75
2022/07/09 01:49:54;;;;;;;;;31.00;27.33;;;;;;;;5079386;28;45375;-73
2022/07/09 01:52:19;;;;;;;;;25.33;23.67;;;;;;;;5078258;28;45315;-71
2022/07/09 01:54:45;;;;;;;;;28.33;26.33;;;;;;;;5078069;28;45471;-70
2022/07/09 01:57:10;;;;;;;;;30.33;27.33;;;;;;;;5077897;28;45442;-70
2022/07/09 01:59:35;;;;;;;;;27.67;22.67;;;;;;;;5078477;28;45415;-69
2022/07/09 02:02:01;;;;;;;;;26.33;21.00;;;;;;;;5078205;28;45430;-69
2022/07/09 02:04:26;;;;;;;;;22.33;19.33;;;;;;;;5078260;28;45258;-73
2022/07/09 02:06:51;;;;;;;;;24.67;23.67;;;;;;;;5078068;28;45201;-72
2022/07/09 02:09:17;;;;;;;;;24.00;22.67;;;;;;;;5078324;28;45321;-72
2022/07/09 02:11:43;;;;;;;;;40.00;34.67;;;;;;;;5077596;28;47162;-73
2022/07/09 02:14:08;;;;;;;;;33.33;29.67;;;;;;;;5077841;28;45526;-72
2022/07/09 02:16:33;;;;;;;;;28.00;25.33;;;;;;;;5078123;28;45393;-71
2022/07/09 02:18:58;;;;;;;;;28.00;26.67;;;;;;;;5077767;28;45414;-72
2022/07/09 02:21:23;;;;;;;;;27.00;25.33;;;;;;;;5077378;28;45318;-72
2022/07/09 02:23:49;;;;;;;;;29.67;26.33;;;;;;;;5077892;28;45643;-71
2022/07/09 02:26:14;;;;;;;;;30.00;27.67;;;;;;;;5077675;28;45401;-71
2022/07/09 02:28:40;;;;;;;;;32.00;25.33;;;;;;;;5077926;28;45645;-71
2022/07/09 02:31:05;;;;;;;;;32.67;30.33;;;;;;;;5077597;28;45367;-73
2022/07/09 02:33:31;;;;;;;;;30.67;25.67;;;;;;;;5077522;28;45432;-72
2022/07/09 02:35:56;;;;;;;;;29.00;27.00;;;;;;;;5077815;28;45409;-73
2022/07/09 02:38:21;;;;;;;;;28.33;28.33;;;;;;;;5077913;28;45428;-72
2022/07/09 02:40:47;;;;;;;;;30.00;25.33;;;;;;;;5076980;28;46576;-72
2022/07/09 02:43:12;;;;;;;;;32.33;27.33;;;;;;;;5077595;28;45486;-72
2022/07/09 02:45:37;;;;;;;;;32.33;28.00;;;;;;;;5077365;28;45372;-72
2022/07/09 02:48:03;;;;;;;;;25.00;23.33;;;;;;;;5077867;28;45348;-72
2022/07/09 02:50:28;;;;;;;;;24.67;23.33;;;;;;;;5077431;28;46770;-72
2022/07/09 02:52:53;;;;;;;;;31.33;26.33;;;;;;;;5077557;28;45558;-72
2022/07/09 02:55:18;;;;;;;;;29.33;28.33;;;;;;;;5077186;28;45439;-70
2022/07/09 02:57:43;;;;;;;;;26.33;25.33;;;;;;;;5077301;28;46029;-71
2022/07/09 03:00:09;;;;;;;;;31.00;27.00;;;;;;;;5077223;28;46483;-71
2022/07/09 03:02:34;;;;;;;;;28.00;26.00;;;;;;;;5077304;28;45229;-69
2022/07/09 03:05:00;;;;;;;;;27.00;26.00;;;;;;;;5077225;28;45871;-69
2022/07/09 03:07:25;;;;;;;;;24.00;22.67;;;;;;;;5077047;28;45267;-69
2022/07/09 03:09:51;;;;;;;;;27.67;23.67;;;;;;;;5076569;28;45521;-69
2022/07/09 03:12:16;;;;;;;;;26.67;25.33;;;;;;;;5076973;28;45539;-69
2022/07/09 03:14:41;;;;;;;;;25.00;24.00;;;;;;;;5077461;28;45419;-69
2022/07/09 03:17:07;;;;;;;;;28.33;27.00;;;;;;;;5077804;28;45300;-69
2022/07/09 03:19:32;;;;;;;;;29.67;25.33;;;;;;;;5076826;28;45431;-69
2022/07/09 03:21:57;;;;;;;;;30.00;28.00;;;;;;;;5077019;28;45363;-70
2022/07/09 03:24:23;;;;;;;;;35.33;33.67;;;;;;;;5077371;28;45333;-70
2022/07/09 03:26:48;;;;;;;;;29.33;28.00;;;;;;;;5077045;28;45377;-70
2022/07/09 03:29:13;;;;;;;;;29.33;25.00;;;;;;;;5076735;28;46574;-70
2022/07/09 03:31:38;;;;;;;;;33.33;28.00;;;;;;;;5079021;28;45406;-70
2022/07/09 03:34:05;;;;;;;;;35.67;28.33;;;;;;;;5079524;28;45398;-69
2022/07/09 03:36:31;;;;;;;;;30.67;28.33;;;;;;;;5080514;28;45455;-70
2022/07/09 03:38:56;;;;;;;;;37.67;32.00;;;;;;;;5080467;28;47420;-76
2022/07/09 03:41:21;;;;;;;;;35.67;31.67;;;;;;;;5079850;28;45447;-74
2022/07/09 03:43:46;;;;;;;;;31.00;28.00;;;;;;;;5079852;28;45439;-72
2022/07/09 03:46:11;;;;;;;;;33.67;30.00;;;;;;;;5080269;28;45266;-72
2022/07/09 03:48:37;;;;;;;;;35.67;31.33;;;;;;;;5080130;28;45519;-74
2022/07/09 03:51:02;;;;;;;;;39.33;33.67;;;;;;;;5080283;28;45296;-75
2022/07/09 03:53:27;;;;;;;;;36.67;31.00;;;;;;;;5080059;28;45399;-74
2022/07/09 03:55:52;;;;;;;;;35.00;30.33;;;;;;;;5080216;28;45454;-74
2022/07/09 03:58:18;;;;;;;;;41.00;31.67;;;;;;;;5079240;28;47141;-71
2022/07/09 04:00:43;;;;;;;;;38.00;33.33;;;;;;;;5080257;28;45726;-72
2022/07/09 04:03:08;;;;;;;;;34.33;31.67;;;;;;;;5079766;28;45258;-72
2022/07/09 04:05:33;;;;;;;;;30.00;30.00;;;;;;;;5080314;28;45472;-71
2022/07/09 04:07:58;;;;;;;;;30.33;29.33;;;;;;;;5079959;28;46424;-72
2022/07/09 04:10:25;;;;;;;;;34.67;27.00;;;;;;;;5079802;28;45206;-71
2022/07/09 04:12:50;;;;;;;;;30.00;28.67;;;;;;;;5079899;28;45138;-72
2022/07/09 04:15:16;;;;;;;;;39.33;31.67;;;;;;;;5079973;28;45391;-72
2022/07/09 04:17:41;;;;;;;;;30.00;29.33;;;;;;;;5079955;27;47162;-72
2022/07/09 04:20:06;;;;;;;;;32.67;30.33;;;;;;;;5076633;28;45167;-73
2022/07/09 04:22:32;;;;;;;;;28.67;27.00;;;;;;;;5079771;28;45204;-73
2022/07/09 04:24:57;;;;;;;;;27.33;25.67;;;;;;;;5080062;28;45296;-74
2022/07/09 04:27:22;;;;;;;;;35.33;32.33;;;;;;;;5079588;28;46378;-74
2022/07/09 04:29:47;;;;;;;;;32.00;28.00;;;;;;;;5079414;28;45380;-74
2022/07/09 04:32:13;;;;;;;;;40.00;32.33;;;;;;;;5079392;28;45210;-74
2022/07/09 04:34:38;;;;;;;;;37.33;31.67;;;;;;;;5079757;28;45159;-72
2022/07/09 04:37:03;;;;;;;;;36.00;32.00;;;;;;;;5079687;28;45353;-71
2022/07/09 04:39:28;;;;;;;;;30.00;27.67;;;;;;;;5079752;28;45336;-73
2022/07/09 04:41:54;;;;;;;;;28.33;27.33;;;;;;;;5079164;28;45344;-73
2022/07/09 04:44:19;;;;;;;;;30.67;30.00;;;;;;;;5078987;28;45535;-71
2022/07/09 04:46:45;;;;;;;;;33.33;31.33;;;;;;;;5078888;28;45802;-71
2022/07/09 04:49:10;;;;;;;;;38.00;31.67;;;;;;;;5079886;28;45328;-73
2022/07/09 04:51:35;;;;;;;;;32.00;28.67;;;;;;;;5079100;28;45524;-74
2022/07/09 04:54:00;;;;;;;;;28.33;25.33;;;;;;;;5079717;28;45317;-73
2022/07/09 04:56:26;;;;;;;;;30.33;29.00;;;;;;;;5078621;28;46390;-71
2022/07/09 04:58:54;;;;;;;;;31.33;25.67;;;;;;;;5078746;28;45386;-72
2022/07/09 05:01:19;;;;;;;;;33.33;27.67;;;;;;;;5079169;28;45315;-71
2022/07/09 05:03:46;;;;;;;;;31.33;27.00;;;;;;;;5078802;28;45545;-72
2022/07/09 05:06:12;;;;;;;;;35.33;31.33;;;;;;;;5079002;28;45323;-70
2022/07/09 05:08:37;;;;;;;;;28.33;24.67;;;;;;;;5079200;28;45428;-76
2022/07/09 05:11:02;;;;;;;;;31.33;29.00;;;;;;;;5078680;28;45296;-71
2022/07/09 05:13:27;;;;;;;;;33.00;26.33;;;;;;;;5079470;28;45322;-72
2022/07/09 05:15:52;;;;;;;;;31.33;29.00;;;;;;;;5079099;28;46725;-71
2022/07/09 05:18:18;;;;;;;;;28.33;25.67;;;;;;;;5078696;28;45367;-70
2022/07/09 05:20:43;;;;;;;;;29.33;26.33;;;;;;;;5079026;28;45235;-73
2022/07/09 05:23:08;;;;;;;;;35.33;32.33;;;;;;;;5078858;28;45443;-71
2022/07/09 05:25:33;;;;;;;;;32.00;28.33;;;;;;;;5078631;28;46263;-73
2022/07/09 05:27:59;;;;;;;;;39.67;33.67;;;;;;;;5078677;28;45372;-74
2022/07/09 05:30:24;;;;;;;;;30.00;29.00;;;;;;;;5078738;28;45837;-73
2022/07/09 05:32:49;;;;;;;;;36.33;32.00;;;;;;;;5078499;28;45514;-71
2022/07/09 05:35:14;;;;;;;;;27.33;27.33;;;;;;;;5078395;28;46441;-73
2022/07/09 05:37:40;;;;;;;;;30.33;28.33;;;;;;;;5078266;28;45461;-72
2022/07/09 05:40:06;;;;;;;;;28.33;24.00;;;;;;;;5078808;28;45447;-71
2022/07/09 05:42:32;;;;;;;;;25.00;24.33;;;;;;;;5078386;28;45550;-72
2022/07/09 05:44:57;;;;;;;;;26.33;24.00;;;;;;;;5078057;28;47072;-70
2022/07/09 05:47:23;;;;;;;;;23.00;21.33;;;;;;;;5071027;28;45304;-79
2022/07/09 05:49:48;;;;;;;;;21.67;17.00;;;;;;;;5068831;28;45219;-78
2022/07/09 05:52:14;;;;;;;;;24.00;21.33;;;;;;;;5078698;28;45950;-74
2022/07/09 05:54:40;;;;;;;;;19.00;19.00;;;;;;;;5080066;27;46310;-72
2022/07/09 05:57:06;;;;;;;;;22.00;17.67;;;;;;;;5078075;28;45181;-76
2022/07/09 05:59:31;;;;;;;;;21.33;18.00;;;;;;;;5077803;28;45467;-77
2022/07/09 06:01:56;;;;;;;;;18.33;14.67;;;;;;;;5078240;28;45281;-78
2022/07/09 06:04:21;;;;;;;;;22.33;17.33;;;;;;;;5077397;28;45576;-75
2022/07/09 06:06:47;;;;;;;;;16.33;14.67;;;;;;;;5078615;28;45391;-73
2022/07/09 06:09:12;;;;;;;;;17.00;15.67;;;;;;;;5078433;28;45294;-80
2022/07/09 06:11:37;;;;;;;;;18.00;15.33;;;;;;;;5085135;27;45309;-73
2022/07/09 06:14:02;;;;;;;;;19.33;16.00;;;;;;;;5098575;27;46676;-84
2022/07/09 06:16:28;;;;;;;;;18.00;15.00;;;;;;;;5098710;27;45236;-83
2022/07/09 06:18:53;;;;;;;;;25.67;21.00;;;;;;;;5099390;27;45296;-81
2022/07/09 06:21:18;;;;;;;;;17.33;17.00;;;;;;;;5088268;27;45677;-81
2022/07/09 06:23:44;;;;;;;;;18.00;16.00;;;;;;;;5078174;28;46209;-78
2022/07/09 06:26:09;;;;;;;;;25.33;20.00;;;;;;;;5077968;28;45501;-80
2022/07/09 06:28:37;;;;;;;;;20.67;18.67;;;;;;;;5077226;28;45509;-75
2022/07/09 06:31:03;;;;;;;;;23.33;19.33;;;;;;;;5077640;28;46850;-77
2022/07/09 06:33:28;;;;;;;;;28.00;21.67;;;;;;;;5076952;28;46332;-78
2022/07/09 06:35:53;;;;;;;;;15.67;15.00;;;;;;;;5077256;28;45502;-79
2022/07/09 06:38:18;;;;;;;;;28.33;25.00;;;;;;;;5078446;28;45418;-83
2022/07/09 06:40:44;;;;;;;;;20.67;19.33;;;;;;;;5078505;28;45281;-83
2022/07/09 06:43:09;;;;;;;;;20.33;20.33;;;;;;;;5077258;28;46596;-73
2022/07/09 06:45:35;;;;;;;;;22.33;19.00;;;;;;;;5077158;28;45282;-74
2022/07/09 06:48:00;;;;;;;;;18.33;16.67;;;;;;;;5077850;28;45262;-70
2022/07/09 06:50:25;;;;;;;;;24.33;23.00;;;;;;;;5078071;28;45503;-70
2022/07/09 06:52:51;;;;;;;;;25.33;22.00;;;;;;;;5077564;28;46044;-75
2022/07/09 06:55:16;;;;;;;;;24.00;19.33;;;;;;;;5059569;28;45352;-71
2022/07/09 06:57:41;;;;;;;;;22.67;19.00;;;;;;;;5077485;28;45412;-74
2022/07/09 07:00:07;;;;;;;;;25.67;25.67;;;;;;;;5077195;28;45738;-74
2022/07/09 07:02:32;;;;;;;;;20.33;15.67;;;;;;;;5077273;28;45307;-74
2022/07/09 07:04:58;;;;;;;;;29.00;22.33;;;;;;;;5077608;28;45486;-75
2022/07/09 07:07:23;;;;;;;;;19.67;17.33;;;;;;;;5076450;28;45452;-74
2022/07/09 07:09:49;;;;;;;;;26.33;19.33;;;;;;;;5076924;28;45642;-75
2022/07/09 07:12:14;;;;;;;;;27.33;23.33;;;;;;;;5077144;28;45591;-75
2022/07/09 07:14:39;;;;;;;;;24.33;19.67;;;;;;;;5077130;28;45351;-76
2022/07/09 07:17:04;;;;;;;;;27.33;23.67;;;;;;;;5077206;28;45295;-75
2022/07/09 07:19:30;;;;;;;;;25.67;23.33;;;;;;;;5077760;28;45419;-75
2022/07/09 07:21:55;;;;;;;;;20.00;18.67;;;;;;;;5077042;28;46266;-74
2022/07/09 07:24:20;;;;;;;;;23.33;20.67;;;;;;;;5076983;28;45420;-75
2022/07/09 07:26:45;;;;;;;;;31.33;26.00;;;;;;;;5077392;28;45338;-74
2022/07/09 07:29:11;;;;;;;;;30.33;26.00;;;;;;;;5076786;28;45390;-73
2022/07/09 07:31:36;;;;;;;;;28.00;22.67;;;;;;;;5075063;28;45435;-73
2022/07/09 07:34:01;;;;;;;;;26.67;24.00;;;;;;;;5076295;28;45449;-73
2022/07/09 07:36:27;;;;;;;;;25.33;22.67;;;;;;;;5076857;28;45324;-72
2022/07/09 07:38:52;;;;;;;;;24.67;21.33;;;;;;;;5077383;28;45477;-73
2022/07/09 07:41:18;;;;;;;;;26.00;25.00;;;;;;;;5076893;28;46359;-75
2022/07/09 07:43:44;;;;;;;;;29.33;28.00;;;;;;;;5076767;28;45445;-75
2022/07/09 07:46:09;;;;;;;;;30.33;26.67;;;;;;;;5076561;28;45386;-76
2022/07/09 07:48:37;;;;;;;;;33.67;27.33;;;;;;;;5077137;28;45475;-77
2022/07/09 07:51:03;;;;;;;;;27.33;23.00;;;;;;;;5076824;28;45433;-77
2022/07/09 07:53:29;;;;;;;;;26.67;25.33;;;;;;;;5076799;28;45586;-76
2022/07/09 07:55:55;;;;;;;;;25.67;25.33;;;;;;;;5077240;28;45284;-73
2022/07/09 07:58:20;;;;;;;;;28.00;22.00;;;;;;;;5076897;28;45406;-77
2022/07/09 08:00:45;;;;;;;;;23.00;21.67;;;;;;;;5076543;28;47033;-78
2022/07/09 08:03:10;;;;;;;;;28.00;25.67;;;;;;;;5076574;28;45336;-73
2022/07/09 08:05:36;;;;;;;;;23.00;22.50;;;;;;;;5076747;28;45321;-75
2022/07/09 08:08:01;;;;;;;;;26.00;22.33;;;;;;;;5077173;28;45323;-77
2022/07/09 08:10:26;;;;;;;;;33.33;25.67;;;;;;;;5076474;28;46056;-74
2022/07/09 08:12:51;;;;;;;;;22.00;20.00;;;;;;;;5076464;28;45304;-74
2022/07/09 08:15:17;;;;;;;;;25.00;24.67;;;;;;;;5076487;28;45809;-74
2022/07/09 08:17:42;;;;;;;;;25.33;21.67;;;;;;;;5077364;28;45557;-75
2022/07/09 08:20:07;;;;;;;;;21.33;19.33;;;;;;;;5078100;28;45659;-75
2022/07/09 08:22:33;;;;;;;;;17.67;17.67;;;;;;;;5079670;28;45889;-76
2022/07/09 08:24:58;;;;;;;;;21.67;20.33;;;;;;;;5079439;28;45362;-74
2022/07/09 08:27:23;;;;;;;;;20.67;19.00;;;;;;;;5080159;28;45554;-74
2022/07/09 08:29:49;;;;;;;;;21.00;17.67;;;;;;;;5079446;28;45592;-74
2022/07/09 08:32:14;;;;;;;;;17.67;17.33;;;;;;;;5079393;28;45370;-75
2022/07/09 08:34:39;;;;;;;;;164.00;147.00;;;;;;;;5079575;28;45430;-75
2022/07/09 08:37:05;;;;;;;;;20.00;18.00;;;;;;;;5078460;28;45366;-75
2022/07/09 08:39:30;;;;;;;;;25.00;21.00;;;;;;;;5078862;28;46353;-75
2022/07/09 08:41:56;;;;;;;;;20.00;20.00;;;;;;;;5079431;28;45223;-73
2022/07/09 08:44:26;;;;;;;;;20.67;19.00;;;;;;;;5079287;28;45374;-74
2022/07/09 08:46:51;;;;;;;;;20.33;19.00;;;;;;;;5079870;28;45748;-75
2022/07/09 08:49:16;;;;;;;;;17.67;16.67;;;;;;;;5079386;28;45338;-74
2022/07/09 08:51:42;;;;;;;;;19.67;17.67;;;;;;;;5079543;28;45909;-75
2022/07/09 08:54:08;;;;;;;;;18.33;18.00;;;;;;;;5079533;28;45355;-74
2022/07/09 08:56:33;;;;;;;;;18.00;15.00;;;;;;;;5078889;28;45425;-75
2022/07/09 08:58:58;;;;;;;;;20.33;20.33;;;;;;;;5078968;28;47499;-75
2022/07/09 09:01:25;;;;;;;;;17.33;17.33;;;;;;;;5078509;28;45335;-75
2022/07/09 09:03:51;;;;;;;;;14.33;12.67;;;;;;;;5079146;28;45295;-75
2022/07/09 09:06:16;;;;;;;;;13.00;13.00;;;;;;;;5079208;28;45633;-75
2022/07/09 09:08:42;;;;;;;;;15.00;12.00;;;;;;;;5079023;28;47173;-76
2022/07/09 09:11:12;;;;;;;;;16.67;16.67;;;;;;;;5078709;28;45502;-74
2022/07/09 09:13:40;;;;;;;;;14.67;13.67;;;;;;;;5079009;28;45306;-75
2022/07/09 09:16:06;;;;;;;;;10.00;10.00;;;;;;;;5079455;28;45444;-73
2022/07/09 09:18:34;;;;;;;;;12.33;11.67;;;;;;;;5060874;28;47551;-73
2022/07/09 09:21:06;;;;;;;;;9.67;8.00;;;;;;;;5078854;28;45414;-76
2022/07/09 09:23:40;;;;;;;;;7.00;7.00;;;;;;;;5079219;28;45869;-75
2022/07/09 09:26:13;;;;;;;;;5.33;5.33;;;;;;;;5079272;28;45440;-75
2022/07/09 09:28:52;;;;;;;;;8.67;5.33;;;;;;;;5078445;28;47506;-75
2022/07/09 09:31:27;;;;;;;;;11.00;6.00;;;;;;;;5078677;28;45407;-75
2022/07/09 09:33:57;;;;;;;;;6.00;5.00;;;;;;;;5079131;28;45379;-76
2022/07/09 09:36:35;;;;;;;;;4.00;4.00;;;;;;;;5078909;28;45454;-76
2022/07/09 09:39:26;;;;;;;;;7.00;7.00;;;;;;;;5078695;28;46671;-74
2022/07/09 09:41:52;;;;;;;;;5.67;5.67;;;;;;;;5076593;28;45408;-76
2022/07/09 09:44:21;;;;;;;;;3.67;3.67;;;;;;;;5078780;28;45303;-74
2022/07/09 09:46:46;;;;;;;;;5.33;4.00;;;;;;;;5077153;28;45596;-76
2022/07/09 09:49:14;;;;;;;;;3.00;3.00;;;;;;;;5078146;28;45386;-74
2022/07/09 09:52:00;;;;;;;;;2.33;2.33;;;;;;;;5078571;28;45277;-75
2022/07/09 09:54:25;;;;;;;;;2.00;2.00;;;;;;;;5077034;28;45838;-74
2022/07/09 09:56:50;;;;;;;;;1.67;1.67;;;;;;;;5078534;28;45519;-75
2022/07/09 09:59:16;;;;;;;;;2.33;2.33;;;;;;;;5078642;28;46378;-75
2022/07/09 10:01:42;;;;;;;;;2.67;2.67;;;;;;;;5077972;28;45446;-74
2022/07/09 10:04:08;;;;;;;;;1.67;1.67;;;;;;;;5078541;28;45504;-74
2022/07/09 10:06:34;;;;;;;;;2.00;1.33;;;;;;;;5078650;28;45643;-75
2022/07/09 10:09:01;;;;;;;;;2.33;2.33;;;;;;;;5078116;28;46365;-76
2022/07/09 10:11:37;;;;;;;;;2.00;2.00;;;;;;;;5078376;28;45312;-75
2022/07/09 10:14:02;;;;;;;;;1.00;1.00;;;;;;;;5078413;28;45351;-75
2022/07/09 10:16:37;;;;;;;;;1.00;1.00;;;;;;;;5077994;28;45343;-75
2022/07/09 10:19:03;;;;;;;;;0.50;0.50;;;;;;;;5077865;28;47335;-75
2022/07/09 10:21:55;;;;;;;;;0.00;0.00;;;;;;;;5077953;28;45462;-84
2022/07/09 10:24:27;;;;;;;;;3.75;2.00;;;;;;;;5075975;28;45467;-82
2022/07/09 10:27:01;;;;;;;;;0.00;0.00;;;;;;;;5078318;28;45405;-76
2022/07/09 10:29:27;;;;;;;;;0.75;0.50;;;;;;;;5077811;28;47058;-76
2022/07/09 10:31:53;;;;;;;;;0.75;0.75;;;;;;;;5077713;28;45478;-74
2022/07/09 10:34:34;;;;;;;;;0.00;0.00;;;;;;;;5077946;28;45333;-81
2022/07/09 10:37:00;;;;;;;;;0.00;0.00;;;;;;;;5078004;28;45289;-81
2022/07/09 10:39:26;;;;;;;;;0.00;0.00;;;;;;;;5077910;28;45458;-76
2022/07/09 10:42:00;;;;;;;;;0.75;0.75;;;;;;;;5077989;28;45387;-77
2022/07/09 10:44:26;;;;;;;;;0.00;0.00;;;;;;;;5078003;28;45355;-76
2022/07/09 10:46:57;;;;;;;;;0.00;0.00;;;;;;;;5077810;28;45477;-77
2022/07/09 10:49:24;;;;;;;;;0.00;0.00;;;;;;;;5077694;28;46551;-76
2022/07/09 10:51:49;;;;;;;;;0.75;0.75;;;;;;;;5077748;28;45419;-79
2022/07/09 10:54:17;;;;;;;;;0.00;0.00;;;;;;;;5077905;28;45433;-78
2022/07/09 10:56:43;;;;;;;;;2.00;0.50;;;;;;;;5078115;28;45384;-78
2022/07/09 10:59:08;;;;;;;;;0.25;0.25;;;;;;;;5077681;28;45453;-76
2022/07/09 11:01:33;;;;;;;;;0.00;0.00;;;;;;;;5077281;28;46111;-77
2022/07/09 11:03:59;;;;;;;;;0.00;0.00;;;;;;;;5078029;28;45299;-76
2022/07/09 11:06:24;;;;;;;;;1.00;1.00;;;;;;;;5078023;28;45436;-76
2022/07/09 11:08:49;;;;;;;;;1.00;1.00;;;;;;;;5077516;28;46080;-76
2022/07/09 11:11:21;;;;;;;;;2.75;2.75;;;;;;;;5077677;28;45383;-76
2022/07/09 11:13:50;;;;;;;;;0.00;0.00;;;;;;;;5077592;28;45315;-75
2022/07/09 11:16:21;;;;;;;;;3.75;3.25;;;;;;;;5077407;28;45234;-76
2022/07/09 11:18:46;;;;;;;;;14.00;13.00;;;;;;;;5077222;28;47279;-79
2022/07/09 11:21:12;;;;;;;;;0.33;0.33;;;;;;;;5077665;28;45381;-79
2022/07/09 11:23:37;;;;;;;;;1.00;1.00;;;;;;;;5077411;28;45394;-75
2022/07/09 11:26:02;;;;;;;;;6.00;6.00;;;;;;;;5077480;28;45328;-74
2022/07/09 11:28:27;;;;;;;;;0.67;0.67;;;;;;;;5077257;28;46331;-75
2022/07/09 11:30:59;;;;;;;;;3.67;2.00;;;;;;;;5077025;28;45592;-79
2022/07/09 11:33:25;;;;;;;;;4.67;4.67;;;;;;;;5077527;28;45441;-80
2022/07/09 11:35:50;;;;;;;;;1.67;0.67;;;;;;;;5077520;28;45418;-82
2022/07/09 11:38:15;;;;;;;;;0.67;0.67;;;;;;;;5077063;28;46476;-75
2022/07/09 11:40:40;;;;;;;;;1.33;0.67;;;;;;;;5077117;28;45360;-76
2022/07/09 11:43:15;;;;;;;;;1.33;1.33;;;;;;;;5077252;28;45360;-76
2022/07/09 11:45:51;;;;;;;;;2.33;2.33;;;;;;;;5077431;28;45466;-75
2022/07/09 11:48:16;;;;;;;;;2.33;2.33;;;;;;;;5077072;28;48363;-76
2022/07/09 11:50:43;;;;;;;;;1.00;1.00;;;;;;;;5076831;28;45465;-75
2022/07/09 11:53:18;;;;;;;;;3.00;3.00;;;;;;;;5080000;28;45297;-76
2022/07/09 11:55:43;;;;;;;;;4.00;4.00;;;;;;;;5080740;28;45352;-75
2022/07/09 11:58:09;;;;;;;;;4.00;4.00;;;;;;;;5078043;28;45550;-74
2022/07/09 12:00:35;;;;;;;;;2.67;2.67;;;;;;;;5080184;28;45327;-75
2022/07/09 12:03:00;;;;;;;;;6.33;2.33;;;;;;;;5079994;28;45261;-75
2022/07/09 12:05:27;;;;;;;;;2.33;2.33;;;;;;;;5080335;28;45182;-73
2022/07/09 12:07:52;;;;;;;;;2.67;2.67;;;;;;;;5080054;28;46233;-75
2022/07/09 12:10:24;;;;;;;;;3.00;3.00;;;;;;;;5080042;28;45363;-74
2022/07/09 12:12:49;;;;;;;;;3.67;3.00;;;;;;;;5080381;28;45411;-75
2022/07/09 12:15:16;;;;;;;;;8.33;5.67;;;;;;;;5080435;28;45541;-74
2022/07/09 12:17:41;;;;;;;;;3.00;3.00;;;;;;;;5079882;28;47254;-75
2022/07/09 12:20:09;;;;;;;;;4.00;3.00;;;;;;;;5077882;28;45375;-75
2022/07/09 12:22:34;;;;;;;;;2.00;1.00;;;;;;;;5079912;28;45397;-77
2022/07/09 12:24:59;;;;;;;;;3.00;3.00;;;;;;;;5080081;28;45374;-75
2022/07/09 12:27:24;;;;;;;;;3.00;3.00;;;;;;;;5079681;28;46483;-75
2022/07/09 12:29:50;;;;;;;;;1.00;1.00;;;;;;;;5080047;28;45309;-76
2022/07/09 12:32:15;;;;;;;;;1.00;1.00;;;;;;;;5080183;28;45345;-75
2022/07/09 12:34:40;;;;;;;;;0.33;0.33;;;;;;;;5080113;28;45322;-75
2022/07/09 12:37:05;;;;;;;;;1.33;1.33;;;;;;;;5079734;28;46384;-75
2022/07/09 12:39:31;;;;;;;;;1.67;1.67;;;;;;;;5079954;28;45320;-75
2022/07/09 12:41:56;;;;;;;;;2.00;2.00;;;;;;;;5079922;28;45376;-76
2022/07/09 12:44:21;;;;;;;;;2.33;1.33;;;;;;;;5080219;28;45362;-75
2022/07/09 12:46:46;;;;;;;;;1.00;1.00;;;;;;;;5079563;28;47429;-75
2022/07/09 12:49:12;;;;;;;;;0.00;0.00;;;;;;;;5079831;28;45492;-76
2022/07/09 12:51:37;;;;;;;;;2.00;1.00;;;;;;;;5079946;28;45376;-75
2022/07/09 12:54:02;;;;;;;;;1.00;0.00;;;;;;;;5078193;28;45297;-74
2022/07/09 12:56:27;;;;;;;;;0.67;0.67;;;;;;;;5079565;28;46110;-74
2022/07/09 12:58:53;;;;;;;;;0.00;0.00;;;;;;;;5079691;28;45355;-75
2022/07/09 13:01:18;;;;;;;;;2.00;0.67;;;;;;;;5079146;28;45464;-74
2022/07/09 13:03:43;;;;;;;;;0.00;0.00;;;;;;;;5078792;28;45608;-75
2022/07/09 13:06:31;;;;;;;;;0.33;0.33;;;;;;;;5079460;28;46355;-74
2022/07/09 13:08:54;;;;;;;;;0.00;0.00;;;;;;;;5079259;28;45339;-74
2022/07/09 13:11:20;;;;;;;;;0.00;0.00;;;;;;;;5079490;28;45473;-75
2022/07/09 13:13:45;;;;;;;;;2.67;1.00;;;;;;;;5079425;28;45360;-75
2022/07/09 13:16:10;;;;;;;;;0.33;0.33;;;;;;;;5079278;28;45468;-74
2022/07/09 13:18:35;;;;;;;;;1.00;1.00;;;;;;;;5079014;28;45170;-74
2022/07/09 13:21:01;;;;;;;;;0.33;0.33;;;;;;;;5079489;28;45201;-74
2022/07/09 13:23:26;;;;;;;;;1.00;1.00;;;;;;;;5079386;28;45291;-74
2022/07/09 13:25:51;;;;;;;;;1.00;1.00;;;;;;;;5078750;28;46467;-73
2022/07/09 13:28:16;;;;;;;;;2.00;2.00;;;;;;;;5078949;28;45193;-73
2022/07/09 13:30:41;;;;;;;;;1.00;1.00;;;;;;;;5079315;28;45335;-74
2022/07/09 13:33:07;;;;;;;;;1.00;1.00;;;;;;;;5079291;28;45313;-76
2022/07/09 13:35:32;;;;;;;;;3.00;2.00;;;;;;;;5079028;28;45608;-76
2022/07/09 13:37:57;;;;;;;;;1.67;1.67;;;;;;;;5078797;28;45422;-77
2022/07/09 13:40:22;;;;;;;;;2.00;2.00;;;;;;;;5078058;28;45385;-77
2022/07/09 13:42:48;;;;;;;;;3.00;2.00;;;;;;;;5079450;28;45282;-73
2022/07/09 13:45:13;;;;;;;;;3.33;2.00;;;;;;;;5078517;28;46395;-74
2022/07/09 13:47:38;;;;;;;;;2.00;2.00;;;;;;;;5078740;28;45284;-75
2022/07/09 13:50:04;;;;;;;;;2.00;2.00;;;;;;;;5078854;28;45639;-75
2022/07/09 13:52:29;;;;;;;;;9.00;9.00;;;;;;;;5079105;28;45320;-75
2022/07/09 13:54:54;;;;;;;;;1.00;1.00;;;;;;;;5078539;28;46525;-75
2022/07/09 13:57:19;;;;;;;;;2.00;2.00;;;;;;;;5079031;28;45235;-75
2022/07/09 13:59:45;;;;;;;;;1.67;0.00;;;;;;;;5078650;28;45182;-75
2022/07/09 14:02:10;;;;;;;;;1.00;1.00;;;;;;;;5078383;28;45438;-75
2022/07/09 14:04:35;;;;;;;;;2.00;1.00;;;;;;;;5078696;28;46560;-76
2022/07/09 14:07:00;;;;;;;;;0.33;0.33;;;;;;;;5078170;28;45416;-75
2022/07/09 14:09:25;;;;;;;;;1.67;1.00;;;;;;;;5078850;28;45351;-75
2022/07/09 14:11:51;;;;;;;;;1.00;0.00;;;;;;;;5078619;28;45457;-75
2022/07/09 14:14:16;;;;;;;;;1.00;1.00;;;;;;;;5078008;28;45444;-75
2022/07/09 14:16:41;;;;;;;;;1.00;1.00;;;;;;;;5077417;28;45331;-75
2022/07/09 14:19:06;;;;;;;;;1.00;1.00;;;;;;;;5078332;28;45392;-77